Forest City, NC

4:38 AM EST on March 04, 2015 (GMT -0500)
Rutherford County-Marchman | Change Station
CLOSE
Current Station
Airport
Location: Rutherfordton,
Elevation: 1079 ft
Nearby Weather Stations
Active Advisory: Dense Fog Advisory

Elev 1079 ft 35.43 °N, 81.94 °W | Updated 23 minutes ago

Fog
Fog
44 °F
Feels Like 42 °F
N
4
Wind Variable Wind from East

Today
High -- | Low -- °F
--% Chance of Precip.
Yesterday
High -- | Low -- °F
Precip. -- in
6:53 AM 6:25 PM
Waxing Gibbous, 98% visible
Pressure 29.99 in
Visibility 0.8 miles
Clouds Overcast 200 ft
Windchill 42 °F
Dew Point 44 °F
Humidity 100%
Rainfall 0.00 in
Snow Depth Not available.
UV 0 out of 12
Pollen .40 out of 12
Air Quality Not available.
Flu Activity Not available.
METAR KFQD 040915Z AUTO 08003KT 3/4SM BR OVC002 07/07 A2999 RMK AO2 T00670067

More Conditions Fewer Conditions

Pressure 29.99 in
Visibility 0.8 miles
Clouds Overcast 200 ft
Windchill 42 °F
Dew Point 44 °F
Humidity 100%
Rainfall 0.00 in
Snow Depth Not available.
UV 0 out of 12
Pollen .40 out of 12
Air Quality Not available.
Flu Activity Not available.
METAR KFQD 040915Z AUTO 08003KT 3/4SM BR OVC002 07/07 A2999 RMK AO2 T00670067

More Conditions Fewer Conditions

10-Day Weather Forecast

Almanac

Astronomy

Mar. 04, 2015 Rise Set
Actual Time
Civil Twilight
Nautical Twilight
Astronomical Twilight
Moon
Length of Visible Light
Length of Day
Tomorrow will be .
, % of the Moon is Illuminated

Today's Extremes

State Highs State Lows

Community

WunderPhotos

Upload Photos

1,802,425 photos uploaded!

WunderBlogs® & News

Nearby

Air Quality

  Air Quality AQ Index Pollutant
Not available.

Snow Depth

Station Depth Elevation

Earthquake Activity

City Distance Mag. Time & Date
Minimum magnitude displayed is 2.5.

Coastal Water Temperatures

Place Temperature

Nearby Weather Stations

Dense Fog Advisory
Statement as of 8:56 PM EST on March 03, 2015

... Dense fog advisory in effect from midnight tonight to 10 am
EST Wednesday...

The National Weather Service in Greenville-Spartanburg has issued
a dense fog advisory... which is in effect from midnight tonight
to 10 am EST Wednesday.

* Locations... all areas along and east of the North Carolina
mountains.

* Visibility... one quarter mile or less at times.

* Impacts... dense fog will lower visibility to the Point of
making driving conditions hazardous.

Precautionary/preparedness actions...

A dense fog advisory means visibilities will frequently be
reduced to less than one quarter mile. If driving... slow down...
use your headlights... and leave plenty of distance ahead of you.